Time;durP1;ratioP1;P1;durP2;ratioP2;P2;SDS_P1;SDS_P2;PMS_P1;PMS_P2;Temp;Humidity;BMP_temperature;BMP_pressure;BME280_temperature;BME280_humidity;BME280_pressure;Samples;Min_cycle;Max_cycle;Signal;HPM_P1;HPM_P2
2022/09/29 00:00:10;;;;;;;10.27;9.50;;;;;;;-142.65;94.79;50168.78;5094496;28;20219;-71
2022/09/29 00:02:36;;;;;;;10.87;10.17;;;;;;;-142.65;94.91;50170.78;5094570;28;20197;-71
2022/09/29 00:05:03;;;;;;;13.13;11.00;;;;;;;-142.65;94.96;50170.78;5094537;28;20190;-71
2022/09/29 00:07:31;;;;;;;10.93;10.30;;;;;;;-142.65;94.89;50178.75;5094792;28;20188;-71
2022/09/29 00:09:57;;;;;;;10.10;9.33;;;;;;;;;;5094366;28;20704;-71
2022/09/29 00:12:24;;;;;;;9.77;9.13;;;;;;;-142.65;95.00;50174.75;5094554;28;20197;-71
2022/09/29 00:14:50;;;;;;;9.67;9.03;;;;;;;-142.65;95.04;50170.78;5094642;28;20253;-71
2022/09/29 00:17:17;;;;;;;10.47;9.73;;;;;;;-142.65;94.85;50182.72;5094608;28;20192;-71
2022/09/29 00:19:43;;;;;;;9.47;8.70;;;;;;;-142.65;94.93;50162.81;5094227;28;20225;-71
2022/09/29 00:22:10;;;;;;;10.17;9.53;;;;;;;-142.65;94.94;50168.78;5094221;28;20189;-71
2022/09/29 00:24:36;;;;;;;11.03;10.10;;;;;;;-142.65;94.91;50170.78;5094177;28;20197;-71
2022/09/29 00:27:03;;;;;;;13.13;11.43;;;;;;;-142.65;95.01;50168.78;5094413;28;20528;-71
2022/09/29 00:29:29;;;;;;;12.80;11.60;;;;;;;-142.65;94.96;50172.78;5094049;28;20205;-71
2022/09/29 00:31:55;;;;;;;10.97;10.27;;;;;;;-142.65;94.97;50168.78;5093352;28;20178;-71
2022/09/29 00:34:22;;;;;;;10.20;9.50;;;;;;;;;;5093994;28;20192;-71
2022/09/29 00:36:48;;;;;;;10.10;9.17;;;;;;;-142.65;94.82;50178.75;5093964;28;20187;-71
2022/09/29 00:39:14;;;;;;;11.57;10.57;;;;;;;-142.65;94.98;50172.78;5093827;28;20209;-71
2022/09/29 00:41:41;;;;;;;11.67;10.80;;;;;;;-142.65;95.05;50174.75;5093830;28;20203;-71
2022/09/29 00:44:13;;;;;;;12.00;10.93;;;;;;;-142.65;95.16;50170.78;5094088;28;20190;-71
2022/09/29 00:46:48;;;;;;;12.10;11.17;;;;;;;-142.65;95.04;50170.78;5093986;28;20273;-71
2022/09/29 00:49:32;;;;;;;12.13;11.03;;;;;;;-142.65;95.13;50172.78;5094266;28;20695;-71
2022/09/29 00:52:08;;;;;;;11.33;10.53;;;;;;;-142.65;95.20;50174.75;5093739;28;20179;-71
2022/09/29 00:54:42;;;;;;;10.87;9.93;;;;;;;-142.65;95.18;50176.75;5094565;28;20521;-71
2022/09/29 00:57:09;;;;;;;10.87;10.07;;;;;;;;;;5093696;28;20184;-71
2022/09/29 00:59:48;;;;;;;11.17;10.27;;;;;;;-142.65;95.27;50168.78;5094082;28;20206;-71
2022/09/29 01:02:18;;;;;;;10.47;9.67;;;;;;;-142.65;95.33;50174.75;5093860;28;20180;-71
2022/09/29 01:04:46;;;;;;;10.93;10.33;;;;;;;-142.65;95.25;50178.75;5093845;28;20174;-71
2022/09/29 01:07:13;;;;;;;13.03;11.10;;;;;;;-142.65;95.25;50170.78;5093756;28;20197;-71
2022/09/29 01:09:41;;;;;;;11.67;10.80;;;;;;;;;;5093376;28;20205;-71
2022/09/29 01:12:08;;;;;;;11.13;10.37;;;;;;;-142.65;95.12;50180.75;5093653;28;20771;-71
2022/09/29 01:14:36;;;;;;;12.50;11.17;;;;;;;-142.65;95.09;50176.75;5093423;28;20551;-71
2022/09/29 01:17:04;;;;;;;9.73;9.23;;;;;;;-142.65;94.79;50178.75;5093420;28;20264;-71
2022/09/29 01:19:39;;;;;;;11.33;10.67;;;;;;;-142.65;94.95;50168.78;5093841;28;20222;-71
2022/09/29 01:22:40;;;;;;;15.77;12.63;;;;;;;-142.65;95.03;50162.81;5093575;28;20193;-71
2022/09/29 01:25:24;;;;;;;14.07;12.67;;;;;;;-142.65;95.12;50170.78;5093617;28;20185;-71
2022/09/29 01:28:09;;;;;;;13.10;11.83;;;;;;;;;;5093624;28;20185;-71
2022/09/29 01:30:53;;;;;;;12.63;11.63;;;;;;;-142.65;95.08;50176.75;5093240;28;20218;-71
2022/09/29 01:33:38;;;;;;;12.40;11.23;;;;;;;;;;5093538;28;20175;-71
2022/09/29 01:36:20;;;;;;;13.40;12.10;;;;;;;-142.65;95.05;50168.78;5093592;28;20529;-71
2022/09/29 01:38:58;;;;;;;13.17;11.23;;;;;;;-142.65;95.06;50178.75;5093124;28;20213;-71
2022/09/29 01:41:42;;;;;;;11.63;10.43;;;;;;;-142.65;95.06;50170.78;5093394;28;20193;-71
2022/09/29 01:44:15;;;;;;;10.67;9.87;;;;;;;-142.65;94.99;50180.75;5096329;28;20186;-71
2022/09/29 01:46:56;;;;;;;11.43;10.40;;;;;;;-142.65;95.06;50174.75;5097493;28;20182;-71
2022/09/29 01:49:27;;;;;;;10.73;9.93;;;;;;;-142.65;94.96;50178.75;5097431;28;20206;-71
2022/09/29 01:51:58;;;;;;;10.50;9.70;;;;;;;;;;5097451;28;20169;-71
2022/09/29 01:54:32;;;;;;;12.43;11.53;;;;;;;-142.65;94.90;50170.78;5097401;28;20174;-71
2022/09/29 01:57:06;;;;;;;14.17;11.37;;;;;;;-142.65;94.85;50178.75;5097321;28;20640;-71
2022/09/29 01:59:55;;;;;;;12.57;11.40;;;;;;;-142.65;94.83;50172.78;5097528;28;20216;-71
2022/09/29 02:02:33;;;;;;;12.20;11.20;;;;;;;-142.65;94.90;50180.75;5097273;28;20174;-71
2022/09/29 02:05:04;;;;;;;13.37;12.00;;;;;;;-142.65;94.86;50170.78;5097521;28;20182;-71
2022/09/29 02:07:36;;;;;;;11.27;10.17;;;;;;;-142.65;94.81;50174.75;5097450;28;20189;-71
2022/09/29 02:10:12;;;;;;;12.67;11.00;;;;;;;-142.65;94.64;50172.78;5096897;28;20703;-71
2022/09/29 02:12:41;;;;;;;9.53;8.83;;;;;;;-142.65;94.66;50174.75;5096801;28;20204;-71
2022/09/29 02:15:11;;;;;;;9.77;8.97;;;;;;;-142.65;94.75;50172.78;5096681;28;20558;-71
2022/09/29 02:17:42;;;;;;;12.90;11.63;;;;;;;-142.65;94.58;50170.78;5096623;28;20204;-71
2022/09/29 02:20:10;;;;;;;11.37;10.43;;;;;;;-142.65;94.35;50180.75;5096734;28;20217;-71
2022/09/29 02:22:38;;;;;;;13.57;9.13;;;;;;;-142.65;94.43;50176.75;5097124;28;20193;-71
2022/09/29 02:25:08;;;;;;;10.43;9.70;;;;;;;-142.65;94.51;50172.78;5096853;28;20167;-72
2022/09/29 02:27:34;;;;;;;11.83;10.63;;;;;;;-142.65;94.54;50168.78;5096756;28;20178;-71
2022/09/29 02:30:01;;;;;;;10.07;9.37;;;;;;;-142.65;94.53;50180.75;5096399;28;20197;-71
2022/09/29 02:32:29;;;;;;;10.87;10.00;;;;;;;-142.65;94.59;50174.75;5096651;28;20178;-71
2022/09/29 02:34:56;;;;;;;15.77;9.93;;;;;;;-142.65;94.55;50170.78;5096646;28;20174;-71
2022/09/29 02:37:46;;;;;;;11.87;10.67;;;;;;;-142.65;94.58;50174.75;5096242;28;20182;-71
2022/09/29 02:40:27;;;;;;;11.23;10.30;;;;;;;;;;5096137;28;20209;-71
2022/09/29 02:43:04;;;;;;;11.60;10.57;;;;;;;-142.65;94.66;50174.75;5096758;28;20231;-71
2022/09/29 02:45:36;;;;;;;12.27;10.97;;;;;;;;;;5096417;28;20533;-71
2022/09/29 02:48:27;;;;;;;12.20;11.27;;;;;;;-142.65;94.64;50178.75;5096112;28;20178;-72
2022/09/29 02:51:18;;;;;;;13.13;10.70;;;;;;;-142.65;94.67;50180.75;5096294;28;20170;-71
2022/09/29 02:54:03;;;;;;;11.50;10.43;;;;;;;-142.65;94.62;50174.75;5096266;28;20617;-71
2022/09/29 02:56:44;;;;;;;11.40;10.53;;;;;;;-142.65;94.73;50176.75;5096102;28;20186;-71
2022/09/29 02:59:17;;;;;;;10.53;9.90;;;;;;;-142.65;94.64;50174.75;5095800;28;20209;-70
2022/09/29 03:01:52;;;;;;;10.97;10.00;;;;;;;-142.65;94.66;50174.75;5096044;28;20198;-70
2022/09/29 03:04:20;;;;;;;10.33;9.47;;;;;;;-142.65;94.64;50174.75;5096042;28;20189;-70
2022/09/29 03:06:47;;;;;;;17.27;11.93;;;;;;;-142.65;94.64;50170.78;5095706;28;20189;-71
2022/09/29 03:09:13;;;;;;;10.37;9.67;;;;;;;;;;5095807;28;20212;-70
2022/09/29 03:11:40;;;;;;;12.53;11.37;;;;;;;-142.65;94.59;50170.78;5096013;28;20266;-70
2022/09/29 03:14:07;;;;;;;12.67;11.40;;;;;;;-142.65;94.48;50178.75;5095535;28;20185;-70
2022/09/29 03:16:34;;;;;;;11.13;10.33;;;;;;;-142.65;94.36;50174.75;5095484;28;20194;-71
2022/09/29 03:19:00;;;;;;;12.53;10.27;;;;;;;-142.65;94.44;50178.75;5095607;28;20213;-70
2022/09/29 03:21:27;;;;;;;13.67;12.17;;;;;;;-142.65;94.55;50176.75;5095345;28;20197;-70
2022/09/29 03:23:53;;;;;;;12.17;11.17;;;;;;;-142.65;94.55;50176.75;5095893;28;20645;-70
2022/09/29 03:26:23;;;;;;;12.80;10.93;;;;;;;-142.65;94.43;50178.75;5095620;28;20299;-70
2022/09/29 03:28:50;;;;;;;9.40;8.70;;;;;;;-142.65;94.41;50170.78;5095190;28;20202;-70
2022/09/29 03:31:17;;;;;;;9.50;8.90;;;;;;;-142.65;94.45;50172.78;5095513;28;20177;-70
2022/09/29 03:33:44;;;;;;;10.13;9.27;;;;;;;-142.65;94.41;50180.75;5095138;28;20189;-70
2022/09/29 03:36:10;;;;;;;10.60;9.90;;;;;;;-142.65;94.52;50178.75;5095648;28;20186;-70
2022/09/29 03:38:37;;;;;;;13.07;9.37;;;;;;;;;;5095169;28;20210;-70
2022/09/29 03:41:05;;;;;;;12.03;11.03;;;;;;;-142.65;94.53;50168.78;5094940;28;20212;-70
2022/09/29 03:43:31;;;;;;;13.70;11.90;;;;;;;;;;5095223;28;20190;-70
2022/09/29 03:45:57;;;;;;;9.97;9.30;;;;;;;-142.65;94.55;50176.75;5094936;28;20186;-70
2022/09/29 03:48:26;;;;;;;9.70;9.20;;;;;;;-142.65;94.47;50168.78;5094812;28;20664;-70
2022/09/29 03:50:53;;;;;;;10.13;9.13;;;;;;;-142.65;94.48;50172.78;5094841;28;20219;-70
2022/09/29 03:53:19;;;;;;;10.20;9.40;;;;;;;-142.65;94.42;50170.78;5095616;28;20182;-71
2022/09/29 03:55:47;;;;;;;12.03;9.90;;;;;;;-142.65;94.50;50174.75;5094762;28;20190;-71
2022/09/29 03:58:14;;;;;;;11.03;10.13;;;;;;;-142.65;94.61;50178.75;5095007;28;20181;-70
2022/09/29 04:00:40;;;;;;;12.23;11.10;;;;;;;;;;5094795;28;20197;-70
2022/09/29 04:03:06;;;;;;;10.27;9.47;;;;;;;-142.65;94.62;50170.78;5094925;28;20599;-71
2022/09/29 04:05:37;;;;;;;12.07;10.90;;;;;;;-142.65;94.79;50178.75;5094763;28;20648;-71
2022/09/29 04:08:04;;;;;;;11.27;10.20;;;;;;;-142.65;94.90;50170.78;5093909;28;20269;-71
2022/09/29 04:10:37;;;;;;;11.97;10.93;;;;;;;-142.65;94.85;50170.78;5094347;28;20209;-71
2022/09/29 04:13:04;;;;;;;12.33;11.37;;;;;;;-142.65;94.85;50178.75;5094431;28;20208;-71
2022/09/29 04:15:31;;;;;;;11.87;10.90;;;;;;;;;;5094388;28;20182;-71
2022/09/29 04:17:57;;;;;;;14.37;10.93;;;;;;;-142.65;94.94;50172.78;5094648;28;20188;-71
2022/09/29 04:20:24;;;;;;;12.87;11.77;;;;;;;-142.65;94.86;50168.78;5095267;28;20237;-71
2022/09/29 04:22:51;;;;;;;10.60;9.80;;;;;;;-142.65;94.82;50178.75;5094473;28;20213;-71
2022/09/29 04:25:17;;;;;;;11.00;10.07;;;;;;;-142.65;94.86;50172.78;5094419;28;20190;-72
2022/09/29 04:27:43;;;;;;;12.23;11.13;;;;;;;-142.65;94.95;50176.75;5094465;28;20185;-71
2022/09/29 04:30:10;;;;;;;10.83;9.90;;;;;;;-142.65;94.95;50178.75;5094052;28;20287;-71
2022/09/29 04:32:38;;;;;;;11.17;10.17;;;;;;;-142.65;94.92;50172.78;5094233;28;20522;-71
2022/09/29 04:35:04;;;;;;;11.20;10.20;;;;;;;-142.65;94.95;50170.78;5094298;28;20185;-72
2022/09/29 04:37:31;;;;;;;11.60;10.60;;;;;;;-142.65;94.89;50176.75;5094225;28;20190;-71
2022/09/29 04:39:57;;;;;;;13.80;10.83;;;;;;;-142.65;94.95;50168.78;5093937;28;20210;-71
2022/09/29 04:42:23;;;;;;;10.93;9.93;;;;;;;-142.65;94.93;50178.75;5094039;28;20223;-71
2022/09/29 04:44:50;;;;;;;11.47;10.67;;;;;;;-142.65;94.93;50164.81;5093876;28;20199;-71
2022/09/29 04:47:16;;;;;;;9.57;8.97;;;;;;;-142.65;94.92;50178.75;5093785;28;20196;-71
2022/09/29 04:49:43;;;;;;;10.83;9.80;;;;;;;-142.65;94.99;50174.75;5093709;28;20208;-71
2022/09/29 04:52:13;;;;;;;12.17;11.00;;;;;;;-142.65;94.83;50178.75;5093862;28;20205;-71
2022/09/29 04:54:39;;;;;;;12.73;11.23;;;;;;;-142.65;95.01;50180.75;5094204;28;20178;-71
2022/09/29 04:57:06;;;;;;;13.13;11.93;;;;;;;-142.65;94.93;50168.78;5093659;28;20200;-71
2022/09/29 04:59:32;;;;;;;14.27;12.10;;;;;;;;;;5093594;28;20219;-71
2022/09/29 05:01:58;;;;;;;11.60;10.60;;;;;;;-142.65;94.94;50174.75;5093835;28;20197;-70
2022/09/29 05:04:25;;;;;;;11.83;11.03;;;;;;;-142.65;94.97;50178.75;5094101;28;20197;-70
2022/09/29 05:06:51;;;;;;;12.63;11.53;;;;;;;-142.65;95.07;50170.78;5093791;28;20176;-70
2022/09/29 05:09:18;;;;;;;19.30;11.77;;;;;;;-142.65;95.14;50176.75;5093624;28;20221;-70
2022/09/29 05:11:49;;;;;;;14.67;13.07;;;;;;;-142.65;95.12;50172.78;5093601;28;20216;-70
2022/09/29 05:14:16;;;;;;;13.20;11.27;;;;;;;-142.65;95.07;50176.75;5093434;28;20180;-70
2022/09/29 05:16:42;;;;;;;17.13;11.93;;;;;;;-142.65;95.17;50118.97;5093693;28;20619;-70
2022/09/29 05:19:09;;;;;;;13.80;11.57;;;;;;;-142.65;95.17;50176.75;5093179;28;20270;-69
2022/09/29 05:21:36;;;;;;;12.63;11.47;;;;;;;-142.65;95.14;50178.75;5093627;28;20197;-70
2022/09/29 05:24:02;;;;;;;12.60;11.30;;;;;;;-142.65;95.12;50176.75;5093387;28;20244;-70
2022/09/29 05:26:28;;;;;;;11.07;10.20;;;;;;;-142.65;95.14;50174.75;5093291;28;20185;-70
2022/09/29 05:28:55;;;;;;;12.53;11.17;;;;;;;-142.65;95.20;50178.75;5093128;28;20209;-70
2022/09/29 05:31:21;;;;;;;11.27;10.33;;;;;;;-142.65;95.00;50180.75;5093522;28;20185;-70
2022/09/29 05:33:48;;;;;;;10.70;9.90;;;;;;;-142.65;94.98;50176.75;5093239;28;20189;-70
2022/09/29 05:36:15;;;;;;;11.90;11.00;;;;;;;-142.65;95.01;50176.75;5093523;28;20226;-71
2022/09/29 05:38:41;;;;;;;11.20;10.20;;;;;;;-142.65;95.01;50180.75;5093143;28;20578;-70
2022/09/29 05:41:10;;;;;;;11.20;10.13;;;;;;;-142.65;95.04;50164.81;5093588;28;20192;-70
2022/09/29 05:43:38;;;;;;;12.13;10.90;;;;;;;-142.65;95.01;50178.75;5093411;28;20186;-70
2022/09/29 05:46:07;;;;;;;13.40;12.17;;;;;;;-142.65;95.11;50180.75;5093074;28;20279;-70
2022/09/29 05:48:34;;;;;;;14.80;11.03;;;;;;;-142.65;95.14;50172.78;5092999;28;20547;-70
2022/09/29 05:51:06;;;;;;;12.87;11.53;;;;;;;;;;5093291;28;20194;-70
2022/09/29 05:53:32;;;;;;;10.63;9.63;;;;;;;-142.65;95.17;50178.75;5093316;28;20188;-70
2022/09/29 05:56:03;;;;;;;10.73;9.90;;;;;;;-142.65;95.22;50170.78;5093299;28;20277;-70
2022/09/29 05:58:30;;;;;;;13.53;12.20;;;;;;;-142.65;95.17;50162.81;5092929;28;20207;-70
2022/09/29 06:00:57;;;;;;;14.17;12.53;;;;;;;-142.65;95.22;50168.78;5093183;28;20197;-70
2022/09/29 06:03:23;;;;;;;12.80;11.63;;;;;;;-142.65;95.32;50178.75;5093530;28;20665;-70
2022/09/29 06:05:50;;;;;;;13.93;12.17;;;;;;;-142.65;95.25;50172.78;5092917;28;20663;-70
2022/09/29 06:08:16;;;;;;;12.63;11.53;;;;;;;-142.65;95.30;50174.75;5093364;28;20288;-70
2022/09/29 06:10:42;;;;;;;13.53;12.47;;;;;;;-142.65;95.29;50176.75;5092820;28;20677;-70
2022/09/29 06:13:09;;;;;;;14.37;11.10;;;;;;;-142.65;95.24;50176.75;5092885;28;20189;-70
2022/09/29 06:15:35;;;;;;;16.03;12.97;;;;;;;-142.65;95.22;50174.75;5093097;28;20542;-70
2022/09/29 06:18:02;;;;;;;13.93;12.43;;;;;;;-142.65;95.29;50170.78;5093269;28;20210;-70
2022/09/29 06:20:29;;;;;;;13.67;12.33;;;;;;;-142.65;95.38;50176.75;5092720;28;20223;-70
2022/09/29 06:22:55;;;;;;;14.17;12.80;;;;;;;-142.65;95.43;50174.75;5092710;28;20209;-70
2022/09/29 06:25:22;;;;;;;13.03;11.83;;;;;;;-142.65;95.55;50170.78;5092804;28;20205;-70
2022/09/29 06:27:48;;;;;;;14.13;12.70;;;;;;;-142.65;95.62;50170.78;5092728;28;20194;-70
2022/09/29 06:30:15;;;;;;;14.70;12.70;;;;;;;-142.65;95.73;50178.75;5094173;28;20231;-70
2022/09/29 06:32:41;;;;;;;16.47;13.20;;;;;;;;;;5096380;28;20228;-71
2022/09/29 06:37:55;;;;;;;14.00;12.60;;;;;;;-142.65;95.90;50176.75;5096725;28;20616;-71
2022/09/29 06:40:22;;;;;;;22.97;14.43;;;;;;;-142.65;96.11;50176.75;5096425;28;20263;-70
2022/09/29 06:42:49;;;;;;;14.93;13.07;;;;;;;-142.65;96.27;50174.75;5096398;28;20201;-70
2022/09/29 06:45:15;;;;;;;19.60;14.57;;;;;;;-142.65;96.22;50174.75;5096128;28;20188;-70
2022/09/29 06:47:47;;;;;;;32.10;17.90;;;;;;;;;;5096385;28;20178;-70
2022/09/29 06:50:13;;;;;;;21.97;16.73;;;;;;;-142.65;96.25;50170.78;5095960;28;20205;-70
2022/09/29 06:52:40;;;;;;;27.37;17.77;;;;;;;-142.65;96.45;50176.75;5095997;28;20679;-70
2022/09/29 06:55:08;;;;;;;20.70;15.83;;;;;;;-142.65;96.56;50172.78;5096260;28;20182;-70
2022/09/29 06:57:35;;;;;;;22.10;15.63;;;;;;;;;;5095937;28;20547;-70
2022/09/29 07:00:03;;;;;;;19.63;16.40;;;;;;;-142.65;96.66;50174.75;5095854;28;20759;-71
2022/09/29 07:02:34;;;;;;;23.47;16.33;;;;;;;;;;5096284;28;20217;-71
2022/09/29 07:05:01;;;;;;;20.53;15.90;;;;;;;-142.65;97.22;50170.78;5096316;28;20207;-70
2022/09/29 07:07:27;;;;;;;17.17;15.37;;;;;;;-142.65;97.29;50170.78;5095994;28;20185;-70
2022/09/29 07:09:54;;;;;;;21.00;15.70;;;;;;;-142.65;97.23;50174.75;5095622;28;20228;-70
2022/09/29 07:12:20;;;;;;;18.90;15.90;;;;;;;-142.65;97.31;50178.75;5095628;28;20204;-70
2022/09/29 07:14:46;;;;;;;21.23;16.70;;;;;;;-142.65;97.39;50168.78;5095610;28;20272;-70
2022/09/29 07:17:13;;;;;;;19.03;15.93;;;;;;;;;;5096095;28;20727;-70
2022/09/29 07:19:39;;;;;;;23.73;17.03;;;;;;;-142.65;97.72;50176.75;5095571;28;20205;-70
2022/09/29 07:22:08;;;;;;;23.57;16.33;;;;;;;-142.65;97.82;50174.75;5095725;28;20576;-70
2022/09/29 07:24:35;;;;;;;20.63;16.67;;;;;;;-142.65;97.86;50172.78;5095690;28;20582;-71
2022/09/29 07:27:01;;;;;;;22.60;16.53;;;;;;;-142.65;97.87;50170.78;5095330;28;20529;-71
2022/09/29 07:29:31;;;;;;;28.63;17.57;;;;;;;;;;5095280;28;20299;-70
2022/09/29 07:31:58;;;;;;;20.37;16.63;;;;;;;;;;5095609;28;20676;-71
2022/09/29 07:34:24;;;;;;;23.00;16.87;;;;;;;-142.65;97.98;50170.78;5095246;28;20185;-71
2022/09/29 07:36:51;;;;;;;30.17;17.57;;;;;;;-142.65;98.10;50182.72;5095621;28;20187;-71
2022/09/29 07:39:20;;;;;;;21.87;16.37;;;;;;;-142.65;98.09;50172.78;5095270;28;20212;-70
2022/09/29 07:41:46;;;;;;;25.23;17.80;;;;;;;;;;5094728;28;20197;-70
2022/09/29 07:44:13;;;;;;;31.50;18.13;;;;;;;-142.65;98.26;50168.78;5095232;28;20189;-70
2022/09/29 07:46:39;;;;;;;24.93;17.40;;;;;;;-142.65;98.27;50170.78;5094881;28;20196;-70
2022/09/29 07:49:05;;;;;;;20.20;17.83;;;;;;;-142.65;98.11;50170.78;5094976;28;20225;-70
2022/09/29 07:51:32;;;;;;;27.50;18.37;;;;;;;-142.65;98.12;50176.75;5094785;28;20195;-70
2022/09/29 07:54:03;;;;;;;23.83;18.67;;;;;;;-142.65;98.04;50168.78;5094758;28;20730;-70
2022/09/29 07:56:31;;;;;;;24.90;18.73;;;;;;;-142.65;97.97;50164.81;5094738;28;20191;-70
2022/09/29 07:58:58;;;;;;;23.37;17.20;;;;;;;-142.65;97.86;50170.78;5094923;28;20589;-70
2022/09/29 08:01:24;;;;;;;28.13;17.40;;;;;;;;;;5094862;28;20202;-70
2022/09/29 08:03:53;;;;;;;22.60;17.77;;;;;;;-142.65;97.51;50168.78;5094503;28;20302;-70
2022/09/29 08:06:21;;;;;;;25.50;19.83;;;;;;;-142.65;97.23;50168.78;5093265;28;20197;-70
2022/09/29 08:08:48;;;;;;;23.17;17.77;;;;;;;-142.65;95.87;50168.78;5094412;28;20245;-70
2022/09/29 08:11:27;;;;;;;24.07;18.60;;;;;;;-142.65;94.93;50170.78;5094822;28;20256;-70
2022/09/29 08:13:58;;;;;;;17.30;15.50;;;;;;;-142.65;94.03;50170.78;5094340;28;20239;-70
2022/09/29 08:16:25;;;;;;;17.30;15.10;;;;;;;-142.65;93.68;50170.78;5094341;28;20205;-71
2022/09/29 08:18:51;;;;;;;15.87;14.37;;;;;;;-142.65;93.66;50170.78;5094253;28;20236;-70
2022/09/29 08:21:18;;;;;;;15.90;14.23;;;;;;;-142.65;93.61;50164.81;5094237;28;20527;-71
2022/09/29 08:23:44;;;;;;;23.20;14.90;;;;;;;;;;5094483;28;20202;-71
2022/09/29 08:26:16;;;;;;;17.23;14.97;;;;;;;-142.65;91.14;50168.78;5094183;28;20715;-71
2022/09/29 08:28:43;;;;;;;17.30;14.90;;;;;;;-142.65;90.45;50162.81;5094122;28;20215;-71
2022/09/29 08:31:19;;;;;;;14.63;13.23;;;;;;;-142.65;89.74;50164.81;5094131;28;20189;-71
2022/09/29 08:33:48;;;;;;;15.00;13.40;;;;;;;-142.65;90.03;50172.78;5094640;28;20180;-71
2022/09/29 08:36:15;;;;;;;16.17;13.07;;;;;;;;;;5094008;28;20683;-71
2022/09/29 08:38:46;;;;;;;16.17;13.77;;;;;;;-142.65;90.11;50170.78;5094079;28;20206;-71
2022/09/29 08:41:33;;;;;;;17.70;13.33;;;;;;;;;;5094215;28;20192;-71
2022/09/29 08:44:35;;;;;;;14.63;13.23;;;;;;;-142.65;87.34;50174.75;5042811;28;20733;-71
2022/09/29 08:47:28;;;;;;;13.87;12.57;;;;;;;-142.65;86.98;50168.78;5094386;28;20617;-71
2022/09/29 08:50:19;;;;;;;18.67;14.27;;;;;;;-142.65;86.30;50168.78;5093673;28;20216;-71
2022/09/29 08:52:53;;;;;;;14.73;13.33;;;;;;;-142.65;85.10;50164.81;5093472;28;20528;-71
2022/09/29 08:55:42;;;;;;;14.40;13.03;;;;;;;-142.65;84.39;50162.81;5093936;28;20174;-71
2022/09/29 08:58:13;;;;;;;12.03;11.13;;;;;;;-142.65;84.71;50164.81;5094215;28;20261;-71
2022/09/29 09:00:49;;;;;;;13.57;12.27;;;;;;;-142.65;85.08;50170.78;5093522;28;20288;-71
2022/09/29 09:03:45;;;;;;;13.63;12.27;;;;;;;-142.65;84.08;50164.81;5093799;28;20719;-71
2022/09/29 09:06:30;;;;;;;13.23;12.23;;;;;;;-142.65;83.91;50170.78;5094099;28;20185;-71
2022/09/29 09:09:08;;;;;;;12.77;11.67;;;;;;;-142.65;82.81;50164.81;5093686;28;20285;-71
2022/09/29 09:12:04;;;;;;;11.60;10.63;;;;;;;-142.65;82.64;50174.75;5093449;28;20182;-71
2022/09/29 09:14:43;;;;;;;12.43;11.23;;;;;;;-142.65;82.56;50164.81;5093443;28;20182;-71
2022/09/29 09:17:39;;;;;;;12.37;11.20;;;;;;;-142.65;82.15;50162.81;5093669;28;20255;-71
2022/09/29 09:20:21;;;;;;;11.83;10.93;;;;;;;-142.65;82.71;50118.97;5093428;28;20219;-71
2022/09/29 09:22:54;;;;;;;11.57;10.53;;;;;;;;;;5093992;28;20280;-71
2022/09/29 09:25:31;;;;;;;12.83;11.63;;;;;;;;;;5093639;28;20192;-71
2022/09/29 09:28:07;;;;;;;14.47;13.07;;;;;;;-142.65;81.50;50164.81;5093960;28;20177;-71
2022/09/29 09:30:47;;;;;;;13.20;10.80;;;;;;;-142.65;82.50;50168.78;5093842;28;20216;-71
2022/09/29 09:33:38;;;;;;;12.60;11.40;;;;;;;-142.65;83.27;50164.81;5093825;28;20174;-71
2022/09/29 09:36:13;;;;;;;15.13;10.80;;;;;;;;;;5093240;28;20269;-71
2022/09/29 09:38:54;;;;;;;14.77;10.00;;;;;;;;;;5093646;28;20209;-71
2022/09/29 09:41:24;;;;;;;9.80;9.07;;;;;;;-142.65;82.58;50164.81;5093325;28;20261;-72
2022/09/29 09:43:55;;;;;;;9.50;8.93;;;;;;;;;;5093187;28;20205;-72
2022/09/29 09:46:41;;;;;;;9.63;9.03;;;;;;;;;;5093352;28;20227;-71
2022/09/29 09:49:18;;;;;;;12.67;8.97;;;;;;;;;;5092668;28;20217;-71
2022/09/29 09:51:49;;;;;;;9.40;8.57;;;;;;;;;;5092985;28;20188;-71
2022/09/29 09:54:40;;;;;;;9.00;8.37;;;;;;;-142.65;79.67;50172.78;5093063;28;20257;-71
2022/09/29 09:57:31;;;;;;;9.47;8.87;;;;;;;-142.65;79.78;50168.78;5093367;28;20212;-71
2022/09/29 09:59:58;;;;;;;9.13;8.20;;;;;;;;;;5093042;28;20298;-71
2022/09/29 10:02:25;;;;;;;8.33;7.77;;;;;;;-142.65;79.22;50164.81;5092742;28;20216;-71
2022/09/29 10:04:52;;;;;;;8.67;8.27;;;;;;;;;;5095713;28;20656;-71
2022/09/29 10:07:21;;;;;;;8.13;7.73;;;;;;;-142.65;79.23;50168.78;5096767;28;20270;-71
2022/09/29 10:09:48;;;;;;;8.37;8.07;;;;;;;-142.65;79.15;50168.78;5097229;28;20292;-71
2022/09/29 10:12:16;;;;;;;9.20;8.57;;;;;;;;;;5096874;28;20211;-71
2022/09/29 10:14:46;;;;;;;8.47;7.70;;;;;;;;;;5096616;28;20269;-71
2022/09/29 10:17:18;;;;;;;8.93;8.03;;;;;;;-142.65;78.19;50168.78;5096679;28;20224;-71
2022/09/29 10:19:58;;;;;;;6.67;6.40;;;;;;;-142.65;78.18;50168.78;5096857;28;20301;-71
2022/09/29 10:22:26;;;;;;;10.53;7.00;;;;;;;-142.65;78.56;50162.81;5096390;28;20206;-71
2022/09/29 10:25:05;;;;;;;7.27;6.87;;;;;;;-142.65;78.12;50168.78;5096517;28;20276;-71
2022/09/29 10:27:32;;;;;;;7.20;6.97;;;;;;;-142.65;77.95;50162.81;5096772;28;20182;-71
2022/09/29 10:30:02;;;;;;;6.80;6.60;;;;;;;-142.65;77.91;50168.78;5096312;28;20212;-71
2022/09/29 10:32:35;;;;;;;5.50;5.40;;;;;;;;;;5096428;28;20720;-71
2022/09/29 10:35:14;;;;;;;6.73;5.57;;;;;;;-142.65;77.95;50168.78;5096940;28;20682;-71
2022/09/29 10:37:45;;;;;;;6.17;5.97;;;;;;;-142.65;77.86;50168.78;5096638;28;20180;-71
2022/09/29 10:40:19;;;;;;;7.10;6.60;;;;;;;-142.65;77.63;50164.81;5096275;28;20201;-72
2022/09/29 10:42:47;;;;;;;6.37;6.17;;;;;;;;;;5096382;28;20200;-72
2022/09/29 10:45:20;;;;;;;6.10;5.80;;;;;;;-142.65;77.67;50162.81;5096131;28;20345;-71
2022/09/29 10:47:57;;;;;;;5.87;5.10;;;;;;;-142.65;76.38;50162.81;5096071;28;20256;-71
2022/09/29 10:50:28;;;;;;;5.03;4.63;;;;;;;-142.65;76.56;50162.81;5096002;28;20212;-71
2022/09/29 10:53:18;;;;;;;4.23;4.13;;;;;;;-142.65;76.12;50168.78;5096210;28;20174;-71
2022/09/29 10:55:50;;;;;;;5.37;5.20;;;;;;;;;;5095882;28;20198;-71
2022/09/29 10:58:27;;;;;;;5.17;4.87;;;;;;;-142.65;76.06;50168.78;5095763;28;20243;-71
2022/09/29 11:01:16;;;;;;;5.30;5.20;;;;;;;-142.65;74.14;50162.81;5096112;28;20193;-71
2022/09/29 11:04:00;;;;;;;5.67;5.57;;;;;;;-142.65;73.65;50162.81;5095737;28;20210;-71
2022/09/29 11:06:29;;;;;;;4.77;4.33;;;;;;;-142.65;72.90;50162.81;5096328;28;20193;-71
2022/09/29 11:09:16;;;;;;;4.80;4.50;;;;;;;-142.65;72.42;50162.81;5096064;28;20233;-71
2022/09/29 11:11:46;;;;;;;5.10;4.80;;;;;;;-142.65;72.91;50162.81;5095532;28;20182;-71
2022/09/29 11:14:38;;;;;;;5.20;4.90;;;;;;;-142.65;73.27;50162.81;5096189;28;20220;-71
2022/09/29 11:17:20;;;;;;;5.70;5.60;;;;;;;;;;5095461;28;20221;-72
2022/09/29 11:19:46;;;;;;;4.83;4.53;;;;;;;-142.65;73.16;50168.78;5095617;28;20206;-72
2022/09/29 11:22:24;;;;;;;4.13;4.03;;;;;;;-142.65;72.57;50117.00;5095461;28;20185;-72
2022/09/29 11:25:12;;;;;;;4.40;4.30;;;;;;;-142.65;72.91;50164.81;5095754;28;20533;-73
2022/09/29 11:27:53;;;;;;;4.13;4.03;;;;;;;-142.65;70.64;50168.78;5095982;28;20257;-72
2022/09/29 11:30:26;;;;;;;4.80;4.70;;;;;;;-142.65;71.71;50162.81;5095314;28;20212;-72
2022/09/29 11:33:00;;;;;;;5.50;5.30;;;;;;;-142.65;71.40;50164.81;5095720;28;20536;-71
2022/09/29 11:35:47;;;;;;;4.10;4.00;;;;;;;-142.65;69.26;50164.81;5094694;28;20205;-72
2022/09/29 11:38:52;;;;;;;4.10;3.90;;;;;;;-142.65;68.74;50164.81;5095351;28;20166;-72
2022/09/29 11:41:38;;;;;;;5.37;4.93;;;;;;;-142.65;68.72;50162.81;5095537;28;20177;-71
2022/09/29 11:44:45;;;;;;;4.77;4.30;;;;;;;-142.65;68.89;50168.78;5095138;28;20208;-71
2022/09/29 11:47:40;;;;;;;5.47;4.77;;;;;;;-142.65;70.02;50162.81;5095602;28;20205;-72
2022/09/29 11:50:29;;;;;;;4.63;4.53;;;;;;;-142.65;69.89;50164.81;5094803;28;20285;-71
2022/09/29 11:53:14;;;;;;;4.40;4.20;;;;;;;-142.65;69.89;50162.81;5095082;28;20176;-71
2022/09/29 11:55:56;;;;;;;4.60;4.50;;;;;;;-142.65;68.60;50164.81;5095471;28;20184;-71